sensor_id;sensor_type;location;lat;lon;timestamp;pressure;altitude;pressure_sealevel;temperature
15709;BMP180;7954;51.914;8.420;2023-06-01T00:00:34;100945.50;;;21.52
15709;BMP180;7954;51.914;8.420;2023-06-01T00:03:06;100950.66;;;21.39
15709;BMP180;7954;51.914;8.420;2023-06-01T00:05:34;100954.59;;;21.31
15709;BMP180;7954;51.914;8.420;2023-06-01T00:08:02;100953.25;;;21.27
15709;BMP180;7954;51.914;8.420;2023-06-01T00:10:30;100944.94;;;21.23
15709;BMP180;7954;51.914;8.420;2023-06-01T00:12:59;100945.25;;;21.19
15709;BMP180;7954;51.914;8.420;2023-06-01T00:15:27;100953.66;;;21.18
15709;BMP180;7954;51.914;8.420;2023-06-01T00:17:55;100942.50;;;21.05
15709;BMP180;7954;51.914;8.420;2023-06-01T00:20:25;100950.09;;;20.98
15709;BMP180;7954;51.914;8.420;2023-06-01T00:22:55;100948.88;;;20.89
15709;BMP180;7954;51.914;8.420;2023-06-01T00:25:23;100952.09;;;20.81
15709;BMP180;7954;51.914;8.420;2023-06-01T00:27:51;100965.09;;;20.70
15709;BMP180;7954;51.914;8.420;2023-06-01T00:30:19;100955.66;;;20.64
15709;BMP180;7954;51.914;8.420;2023-06-01T00:32:48;100972.38;;;20.55
15709;BMP180;7954;51.914;8.420;2023-06-01T00:35:16;100959.22;;;20.46
15709;BMP180;7954;51.914;8.420;2023-06-01T00:37:46;100962.03;;;20.30
15709;BMP180;7954;51.914;8.420;2023-06-01T00:40:14;100976.63;;;20.24
15709;BMP180;7954;51.914;8.420;2023-06-01T00:42:41;100964.50;;;20.23
15709;BMP180;7954;51.914;8.420;2023-06-01T00:45:10;100969.69;;;20.17
15709;BMP180;7954;51.914;8.420;2023-06-01T00:47:40;100962.31;;;20.13
15709;BMP180;7954;51.914;8.420;2023-06-01T00:50:09;100963.97;;;20.13
15709;BMP180;7954;51.914;8.420;2023-06-01T00:52:38;100976.84;;;20.07
15709;BMP180;7954;51.914;8.420;2023-06-01T00:55:08;100964.28;;;20.09
15709;BMP180;7954;51.914;8.420;2023-06-01T00:57:38;100969.69;;;20.17
15709;BMP180;7954;51.914;8.420;2023-06-01T01:00:07;100967.28;;;20.24
15709;BMP180;7954;51.914;8.420;2023-06-01T01:02:37;100964.84;;;20.31
15709;BMP180;7954;51.914;8.420;2023-06-01T01:05:06;100970.81;;;20.37
15709;BMP180;7954;51.914;8.420;2023-06-01T01:07:43;100975.63;;;20.41
15709;BMP180;7954;51.914;8.420;2023-06-01T01:10:22;100975.31;;;20.45
15709;BMP180;7954;51.914;8.420;2023-06-01T01:12:58;100975.31;;;20.45
15709;BMP180;7954;51.914;8.420;2023-06-01T01:15:32;100976.25;;;20.46
15709;BMP180;7954;51.914;8.420;2023-06-01T01:18:03;100978.59;;;20.44
15709;BMP180;7954;51.914;8.420;2023-06-01T01:20:36;100985.09;;;20.48
15709;BMP180;7954;51.914;8.420;2023-06-01T01:23:21;100975.97;;;20.50
15709;BMP180;7954;51.914;8.420;2023-06-01T01:26:19;100966.47;;;20.43
15709;BMP180;7954;51.914;8.420;2023-06-01T01:28:53;100971.41;;;20.42
15709;BMP180;7954;51.914;8.420;2023-06-01T01:31:24;100966.09;;;20.40
15709;BMP180;7954;51.914;8.420;2023-06-01T01:33:53;100970.25;;;20.27
15709;BMP180;7954;51.914;8.420;2023-06-01T01:36:22;100956.72;;;20.28
15709;BMP180;7954;51.914;8.420;2023-06-01T01:38:51;100962.53;;;20.27
15709;BMP180;7954;51.914;8.420;2023-06-01T01:41:20;100955.78;;;20.28
15709;BMP180;7954;51.914;8.420;2023-06-01T01:43:49;100966.56;;;20.25
15709;BMP180;7954;51.914;8.420;2023-06-01T01:46:23;100975.50;;;20.34
15709;BMP180;7954;51.914;8.420;2023-06-01T01:49:00;100968.94;;;20.36
15709;BMP180;7954;51.914;8.420;2023-06-01T01:51:35;100980.63;;;20.34
15709;BMP180;7954;51.914;8.420;2023-06-01T01:54:05;100969.53;;;20.28
15709;BMP180;7954;51.914;8.420;2023-06-01T01:56:35;100961.31;;;20.18
15709;BMP180;7954;51.914;8.420;2023-06-01T01:59:04;100972.66;;;20.08
15709;BMP180;7954;51.914;8.420;2023-06-01T02:01:35;100971.63;;;20.01
15709;BMP180;7954;51.914;8.420;2023-06-01T02:04:04;100974.19;;;20.01
15709;BMP180;7954;51.914;8.420;2023-06-01T02:06:33;100978.38;;;20.00
15709;BMP180;7954;51.914;8.420;2023-06-01T02:09:03;100983.28;;;19.99
15709;BMP180;7954;51.914;8.420;2023-06-01T02:11:34;100972.13;;;19.98
15709;BMP180;7954;51.914;8.420;2023-06-01T02:14:02;100975.59;;;19.81
15709;BMP180;7954;51.914;8.420;2023-06-01T02:16:30;100976.28;;;19.49
15709;BMP180;7954;51.914;8.420;2023-06-01T02:18:59;100980.59;;;19.38
15709;BMP180;7954;51.914;8.420;2023-06-01T02:21:29;100981.59;;;19.33
15709;BMP180;7954;51.914;8.420;2023-06-01T02:23:57;100976.13;;;19.25
15709;BMP180;7954;51.914;8.420;2023-06-01T02:26:30;100970.50;;;19.27
15709;BMP180;7954;51.914;8.420;2023-06-01T02:28:59;100974.19;;;19.29
15709;BMP180;7954;51.914;8.420;2023-06-01T02:31:29;100970.34;;;19.38
15709;BMP180;7954;51.914;8.420;2023-06-01T02:33:56;100969.84;;;19.40
15709;BMP180;7954;51.914;8.420;2023-06-01T02:36:26;100967.78;;;19.38
15709;BMP180;7954;51.914;8.420;2023-06-01T02:38:55;100965.22;;;19.38
15709;BMP180;7954;51.914;8.420;2023-06-01T02:41:23;100971.34;;;19.33
15709;BMP180;7954;51.914;8.420;2023-06-01T02:43:51;100969.44;;;19.37
15709;BMP180;7954;51.914;8.420;2023-06-01T02:46:19;100977.97;;;19.43
15709;BMP180;7954;51.914;8.420;2023-06-01T02:48:47;100980.03;;;19.46
15709;BMP180;7954;51.914;8.420;2023-06-01T02:51:15;100976.53;;;19.45
15709;BMP180;7954;51.914;8.420;2023-06-01T02:53:46;100975.22;;;19.42
15709;BMP180;7954;51.914;8.420;2023-06-01T02:56:15;100980.03;;;19.46
15709;BMP180;7954;51.914;8.420;2023-06-01T02:58:42;100980.47;;;19.49
15709;BMP180;7954;51.914;8.420;2023-06-01T03:01:11;100972.06;;;19.50
15709;BMP180;7954;51.914;8.420;2023-06-01T03:03:39;100981.47;;;19.44
15709;BMP180;7954;51.914;8.420;2023-06-01T03:06:08;100982.31;;;19.50
15709;BMP180;7954;51.914;8.420;2023-06-01T03:08:36;100971.91;;;19.43
15709;BMP180;7954;51.914;8.420;2023-06-01T03:11:06;100977.19;;;19.50
15709;BMP180;7954;51.914;8.420;2023-06-01T03:13:33;100971.06;;;19.55
15709;BMP180;7954;51.914;8.420;2023-06-01T03:16:01;100974.94;;;19.46
15709;BMP180;7954;51.914;8.420;2023-06-01T03:18:29;100963.66;;;19.33
15709;BMP180;7954;51.914;8.420;2023-06-01T03:20:57;100967.16;;;19.34
15709;BMP180;7954;51.914;8.420;2023-06-01T03:23:25;100961.84;;;19.32
15709;BMP180;7954;51.914;8.420;2023-06-01T03:25:54;100961.25;;;19.22
15709;BMP180;7954;51.914;8.420;2023-06-01T03:28:25;100970.75;;;19.23
15709;BMP180;7954;51.914;8.420;2023-06-01T03:30:52;100968.66;;;19.26
15709;BMP180;7954;51.914;8.420;2023-06-01T03:33:21;100971.91;;;19.25
15709;BMP180;7954;51.914;8.420;2023-06-01T03:35:49;100968.56;;;19.32
15709;BMP180;7954;51.914;8.420;2023-06-01T03:38:18;100965.22;;;19.38
15709;BMP180;7954;51.914;8.420;2023-06-01T03:40:45;100959.34;;;19.44
15709;BMP180;7954;51.914;8.420;2023-06-01T03:43:13;100956.03;;;19.45
15709;BMP180;7954;51.914;8.420;2023-06-01T03:45:43;100958.84;;;19.47
15709;BMP180;7954;51.914;8.420;2023-06-01T03:48:11;100953.47;;;19.45
15709;BMP180;7954;51.914;8.420;2023-06-01T03:50:41;100951.88;;;19.46
15709;BMP180;7954;51.914;8.420;2023-06-01T03:53:09;100952.28;;;19.49
15709;BMP180;7954;51.914;8.420;2023-06-01T03:55:37;100960.47;;;19.46
15709;BMP180;7954;51.914;8.420;2023-06-01T03:58:05;100958.09;;;19.48
15709;BMP180;7954;51.914;8.420;2023-06-01T04:00:34;100956.00;;;19.51
15709;BMP180;7954;51.914;8.420;2023-06-01T04:03:04;100956.19;;;19.52
15709;BMP180;7954;51.914;8.420;2023-06-01T04:05:34;100952.84;;;19.59
15709;BMP180;7954;51.914;8.420;2023-06-01T04:08:03;100956.09;;;19.58
15709;BMP180;7954;51.914;8.420;2023-06-01T04:10:31;100970.91;;;19.48
15709;BMP180;7954;51.914;8.420;2023-06-01T04:12:59;100968.94;;;19.40
15709;BMP180;7954;51.914;8.420;2023-06-01T04:15:27;100971.28;;;19.38
15709;BMP180;7954;51.914;8.420;2023-06-01T04:17:54;100965.16;;;19.43
15709;BMP180;7954;51.914;8.420;2023-06-01T04:20:24;100960.41;;;19.52
15709;BMP180;7954;51.914;8.420;2023-06-01T04:22:52;100969.38;;;19.61
15709;BMP180;7954;51.914;8.420;2023-06-01T04:25:20;100966.22;;;19.69
15709;BMP180;7954;51.914;8.420;2023-06-01T04:27:50;100968.94;;;19.76
15709;BMP180;7954;51.914;8.420;2023-06-01T04:30:21;100962.16;;;19.76
15709;BMP180;7954;51.914;8.420;2023-06-01T04:32:50;100974.19;;;19.65
15709;BMP180;7954;51.914;8.420;2023-06-01T04:35:18;100965.66;;;19.41
15709;BMP180;7954;51.914;8.420;2023-06-01T04:37:48;100963.31;;;19.42
15709;BMP180;7954;51.914;8.420;2023-06-01T04:40:17;100957.41;;;19.49
15709;BMP180;7954;51.914;8.420;2023-06-01T04:42:45;100959.22;;;19.68
15709;BMP180;7954;51.914;8.420;2023-06-01T04:45:16;100955.81;;;19.80
15709;BMP180;7954;51.914;8.420;2023-06-01T04:47:45;100959.94;;;19.85
15709;BMP180;7954;51.914;8.420;2023-06-01T04:50:15;100954.81;;;19.85
15709;BMP180;7954;51.914;8.420;2023-06-01T04:52:44;100951.09;;;19.83
15709;BMP180;7954;51.914;8.420;2023-06-01T04:55:14;100953.53;;;19.76
15709;BMP180;7954;51.914;8.420;2023-06-01T04:57:43;100959.69;;;19.71
15709;BMP180;7954;51.914;8.420;2023-06-01T05:00:12;100964.34;;;19.68
15709;BMP180;7954;51.914;8.420;2023-06-01T05:02:45;100959.22;;;19.68
15709;BMP180;7954;51.914;8.420;2023-06-01T05:05:15;100963.03;;;19.64
15709;BMP180;7954;51.914;8.420;2023-06-01T05:07:44;100963.94;;;19.65
15709;BMP180;7954;51.914;8.420;2023-06-01T05:10:16;100965.03;;;19.54
15709;BMP180;7954;51.914;8.420;2023-06-01T05:12:44;100954.63;;;19.47
15709;BMP180;7954;51.914;8.420;2023-06-01T05:15:12;100960.91;;;19.49
15709;BMP180;7954;51.914;8.420;2023-06-01T05:17:40;100967.66;;;19.67
15709;BMP180;7954;51.914;8.420;2023-06-01T05:20:09;100956.47;;;19.84
15709;BMP180;7954;51.914;8.420;2023-06-01T05:22:38;100954.81;;;19.85
15709;BMP180;7954;51.914;8.420;2023-06-01T05:25:06;100952.66;;;19.88
15709;BMP180;7954;51.914;8.420;2023-06-01T05:27:36;100957.56;;;19.92
15709;BMP180;7954;51.914;8.420;2023-06-01T05:30:04;100963.41;;;20.03
15709;BMP180;7954;51.914;8.420;2023-06-01T05:32:33;100955.94;;;20.04
15709;BMP180;7954;51.914;8.420;2023-06-01T05:35:01;100956.78;;;20.10
15709;BMP180;7954;51.914;8.420;2023-06-01T05:37:30;100950.97;;;20.24
15709;BMP180;7954;51.914;8.420;2023-06-01T05:39:58;100950.16;;;20.30
15709;BMP180;7954;51.914;8.420;2023-06-01T05:42:25;100945.25;;;20.44
15709;BMP180;7954;51.914;8.420;2023-06-01T05:44:55;100953.16;;;20.58
15709;BMP180;7954;51.914;8.420;2023-06-01T05:47:22;100939.03;;;20.67
15709;BMP180;7954;51.914;8.420;2023-06-01T05:49:50;100953.41;;;20.72
15709;BMP180;7954;51.914;8.420;2023-06-01T05:52:18;100948.50;;;20.73
15709;BMP180;7954;51.914;8.420;2023-06-01T05:54:46;100949.91;;;20.84
15709;BMP180;7954;51.914;8.420;2023-06-01T05:57:15;100953.13;;;20.88
15709;BMP180;7954;51.914;8.420;2023-06-01T05:59:43;100952.09;;;20.93
15709;BMP180;7954;51.914;8.420;2023-06-01T06:02:14;100950.03;;;20.91
15709;BMP180;7954;51.914;8.420;2023-06-01T06:04:42;100953.00;;;20.81
15709;BMP180;7954;51.914;8.420;2023-06-01T06:07:11;100954.31;;;20.72
15709;BMP180;7954;51.914;8.420;2023-06-01T06:09:39;100963.34;;;20.51
15709;BMP180;7954;51.914;8.420;2023-06-01T06:12:08;100972.06;;;20.46
15709;BMP180;7954;51.914;8.420;2023-06-01T06:14:36;100964.03;;;20.50
15709;BMP180;7954;51.914;8.420;2023-06-01T06:17:07;100962.19;;;20.49
15709;BMP180;7954;51.914;8.420;2023-06-01T06:19:36;100968.94;;;20.36
15709;BMP180;7954;51.914;8.420;2023-06-01T06:22:04;100961.47;;;20.50
15709;BMP180;7954;51.914;8.420;2023-06-01T06:24:32;100953.66;;;20.56
15709;BMP180;7954;51.914;8.420;2023-06-01T06:27:00;100962.91;;;20.61
15709;BMP180;7954;51.914;8.420;2023-06-01T06:29:28;100967.97;;;20.66
15709;BMP180;7954;51.914;8.420;2023-06-01T06:31:56;100972.00;;;20.76
15709;BMP180;7954;51.914;8.420;2023-06-01T06:34:24;100971.59;;;20.98
15709;BMP180;7954;51.914;8.420;2023-06-01T06:36:53;100979.69;;;21.01
15709;BMP180;7954;51.914;8.420;2023-06-01T06:39:21;100979.28;;;21.11
15709;BMP180;7954;51.914;8.420;2023-06-01T06:41:49;100965.91;;;21.26
15709;BMP180;7954;51.914;8.420;2023-06-01T06:44:17;100960.94;;;21.39
15709;BMP180;7954;51.914;8.420;2023-06-01T06:46:45;100955.41;;;21.36
15709;BMP180;7954;51.914;8.420;2023-06-01T06:49:12;100950.66;;;21.39
15709;BMP180;7954;51.914;8.420;2023-06-01T06:51:40;100959.00;;;21.44
15709;BMP180;7954;51.914;8.420;2023-06-01T06:54:10;100954.88;;;21.51
15709;BMP180;7954;51.914;8.420;2023-06-01T06:56:38;100970.38;;;21.46
15709;BMP180;7954;51.914;8.420;2023-06-01T06:59:06;100964.00;;;21.49
15709;BMP180;7954;51.914;8.420;2023-06-01T07:01:36;100983.31;;;21.65
15709;BMP180;7954;51.914;8.420;2023-06-01T07:04:07;100962.91;;;21.79
15709;BMP180;7954;51.914;8.420;2023-06-01T07:06:35;100978.09;;;21.90
15709;BMP180;7954;51.914;8.420;2023-06-01T07:09:03;100959.81;;;22.01
15709;BMP180;7954;51.914;8.420;2023-06-01T07:11:34;100960.75;;;22.21
15709;BMP180;7954;51.914;8.420;2023-06-01T07:14:02;100963.66;;;22.36
15709;BMP180;7954;51.914;8.420;2023-06-01T07:16:31;100966.69;;;22.46
15709;BMP180;7954;51.914;8.420;2023-06-01T07:18:59;100956.97;;;22.51
15709;BMP180;7954;51.914;8.420;2023-06-01T07:21:27;100957.53;;;22.48
15709;BMP180;7954;51.914;8.420;2023-06-01T07:23:55;100956.19;;;22.45
15709;BMP180;7954;51.914;8.420;2023-06-01T07:26:23;100953.97;;;22.41
15709;BMP180;7954;51.914;8.420;2023-06-01T07:28:53;100961.38;;;22.52
15709;BMP180;7954;51.914;8.420;2023-06-01T07:31:21;100955.22;;;22.63
15709;BMP180;7954;51.914;8.420;2023-06-01T07:33:49;100955.94;;;22.63
15709;BMP180;7954;51.914;8.420;2023-06-01T07:36:18;100949.69;;;22.61
15709;BMP180;7954;51.914;8.420;2023-06-01T07:38:48;100947.44;;;22.57
15709;BMP180;7954;51.914;8.420;2023-06-01T07:41:16;100957.53;;;22.55
15709;BMP180;7954;51.914;8.420;2023-06-01T07:43:43;100954.59;;;22.52
15709;BMP180;7954;51.914;8.420;2023-06-01T07:46:14;100962.91;;;22.18
15709;BMP180;7954;51.914;8.420;2023-06-01T07:48:43;100971.31;;;21.78
15709;BMP180;7954;51.914;8.420;2023-06-01T07:51:11;100961.47;;;21.81
15709;BMP180;7954;51.914;8.420;2023-06-01T07:53:38;100960.09;;;21.90
15709;BMP180;7954;51.914;8.420;2023-06-01T07:56:06;100950.63;;;22.03
15709;BMP180;7954;51.914;8.420;2023-06-01T07:58:34;100952.50;;;22.23
15709;BMP180;7954;51.914;8.420;2023-06-01T08:01:03;100949.97;;;22.50
15709;BMP180;7954;51.914;8.420;2023-06-01T08:03:33;100955.25;;;22.25
15709;BMP180;7954;51.914;8.420;2023-06-01T08:06:02;100955.00;;;22.16
15709;BMP180;7954;51.914;8.420;2023-06-01T08:08:32;100960.13;;;22.16
15709;BMP180;7954;51.914;8.420;2023-06-01T08:11:00;100956.09;;;22.31
15709;BMP180;7954;51.914;8.420;2023-06-01T08:13:28;100950.88;;;22.50
15709;BMP180;7954;51.914;8.420;2023-06-01T08:15:55;100950.59;;;22.61
15709;BMP180;7954;51.914;8.420;2023-06-01T08:18:24;100951.38;;;22.67
15709;BMP180;7954;51.914;8.420;2023-06-01T08:20:53;100943.13;;;22.69
15709;BMP180;7954;51.914;8.420;2023-06-01T08:23:22;100956.19;;;22.45
15709;BMP180;7954;51.914;8.420;2023-06-01T08:25:50;100967.66;;;22.15
15709;BMP180;7954;51.914;8.420;2023-06-01T08:28:18;100967.25;;;22.12
15709;BMP180;7954;51.914;8.420;2023-06-01T08:30:46;100965.69;;;22.00
15709;BMP180;7954;51.914;8.420;2023-06-01T08:33:14;100964.56;;;21.98
15709;BMP180;7954;51.914;8.420;2023-06-01T08:35:42;100961.94;;;21.91
15709;BMP180;7954;51.914;8.420;2023-06-01T08:38:11;100967.19;;;21.66
15709;BMP180;7954;51.914;8.420;2023-06-01T08:40:39;100971.09;;;21.45
15709;BMP180;7954;51.914;8.420;2023-06-01T08:43:12;100966.03;;;21.64
15709;BMP180;7954;51.914;8.420;2023-06-01T08:45:44;100954.38;;;21.73
15709;BMP180;7954;51.914;8.420;2023-06-01T08:48:16;100965.34;;;21.85
15709;BMP180;7954;51.914;8.420;2023-06-01T08:50:49;100969.94;;;21.87
15709;BMP180;7954;51.914;8.420;2023-06-01T08:53:20;100957.25;;;22.01
15709;BMP180;7954;51.914;8.420;2023-06-01T08:55:51;100967.41;;;22.06
15709;BMP180;7954;51.914;8.420;2023-06-01T08:58:19;100955.78;;;22.22
15709;BMP180;7954;51.914;8.420;2023-06-01T09:00:47;100960.22;;;22.23
15709;BMP180;7954;51.914;8.420;2023-06-01T09:03:16;100952.16;;;22.47
15709;BMP180;7954;51.914;8.420;2023-06-01T09:05:44;100950.31;;;22.46
15709;BMP180;7954;51.914;8.420;2023-06-01T09:08:12;100941.31;;;22.49
15709;BMP180;7954;51.914;8.420;2023-06-01T09:10:42;100947.66;;;22.58
15709;BMP180;7954;51.914;8.420;2023-06-01T09:13:10;100946.69;;;22.84
15709;BMP180;7954;51.914;8.420;2023-06-01T09:15:50;100952.78;;;23.04
15709;BMP180;7954;51.914;8.420;2023-06-01T09:18:18;100939.94;;;23.25
15709;BMP180;7954;51.914;8.420;2023-06-01T09:20:46;100937.09;;;23.49
15709;BMP180;7954;51.914;8.420;2023-06-01T09:23:23;100938.41;;;23.46
15709;BMP180;7954;51.914;8.420;2023-06-01T09:26:04;100931.75;;;23.41
15709;BMP180;7954;51.914;8.420;2023-06-01T09:28:54;100927.72;;;23.50
15709;BMP180;7954;51.914;8.420;2023-06-01T09:31:38;100927.72;;;23.57
15709;BMP180;7954;51.914;8.420;2023-06-01T09:34:08;100930.25;;;23.43
15709;BMP180;7954;51.914;8.420;2023-06-01T09:36:38;100928.38;;;23.28
15709;BMP180;7954;51.914;8.420;2023-06-01T09:39:08;100920.63;;;23.28
15709;BMP180;7954;51.914;8.420;2023-06-01T09:41:59;100917.88;;;23.27
15709;BMP180;7954;51.914;8.420;2023-06-01T09:44:30;100915.19;;;23.53
15709;BMP180;7954;51.914;8.420;2023-06-01T09:46:59;100896.69;;;23.90
15709;BMP180;7954;51.914;8.420;2023-06-01T09:49:29;100901.28;;;23.79
15709;BMP180;7954;51.914;8.420;2023-06-01T09:52:09;100910.03;;;23.53
15709;BMP180;7954;51.914;8.420;2023-06-01T09:54:40;100895.09;;;23.43
15709;BMP180;7954;51.914;8.420;2023-06-01T09:57:11;100894.56;;;23.53
15709;BMP180;7954;51.914;8.420;2023-06-01T09:59:41;100897.31;;;23.54
15709;BMP180;7954;51.914;8.420;2023-06-01T10:02:12;100896.78;;;23.50
15709;BMP180;7954;51.914;8.420;2023-06-01T10:04:44;100901.91;;;23.43
15709;BMP180;7954;51.914;8.420;2023-06-01T10:07:13;100890.53;;;23.62
15709;BMP180;7954;51.914;8.420;2023-06-01T10:09:43;100895.03;;;23.84
15709;BMP180;7954;51.914;8.420;2023-06-01T10:12:14;100892.81;;;23.80
15709;BMP180;7954;51.914;8.420;2023-06-01T10:14:42;100888.75;;;23.89
15709;BMP180;7954;51.914;8.420;2023-06-01T10:17:11;100900.91;;;23.76
15709;BMP180;7954;51.914;8.420;2023-06-01T10:19:41;100900.13;;;23.56
15709;BMP180;7954;51.914;8.420;2023-06-01T10:22:09;100895.69;;;23.69
15709;BMP180;7954;51.914;8.420;2023-06-01T10:24:39;100898.88;;;23.80
15709;BMP180;7954;51.914;8.420;2023-06-01T10:27:15;100897.25;;;23.81
15709;BMP180;7954;51.914;8.420;2023-06-01T10:29:44;100883.59;;;23.89
15709;BMP180;7954;51.914;8.420;2023-06-01T10:32:43;100874.00;;;24.22
15709;BMP180;7954;51.914;8.420;2023-06-01T10:38:25;100874.91;;;24.58
15709;BMP180;7954;51.914;8.420;2023-06-01T10:41:26;100876.38;;;24.63
15709;BMP180;7954;51.914;8.420;2023-06-01T10:43:57;100874.72;;;24.56
15709;BMP180;7954;51.914;8.420;2023-06-01T10:46:39;100873.91;;;24.78
15709;BMP180;7954;51.914;8.420;2023-06-01T10:49:11;100876.84;;;24.88
15709;BMP180;7954;51.914;8.420;2023-06-01T10:51:39;100873.88;;;24.92
15709;BMP180;7954;51.914;8.420;2023-06-01T10:54:25;100877.69;;;24.52
15709;BMP180;7954;51.914;8.420;2023-06-01T10:57:18;100879.19;;;24.08
15709;BMP180;7954;51.914;8.420;2023-06-01T11:02:56;100879.72;;;23.85
15709;BMP180;7954;51.914;8.420;2023-06-01T11:05:45;100884.66;;;23.70
15709;BMP180;7954;51.914;8.420;2023-06-01T11:11:16;100887.59;;;23.66
15709;BMP180;7954;51.914;8.420;2023-06-01T11:14:05;100883.53;;;23.61
15709;BMP180;7954;51.914;8.420;2023-06-01T11:16:33;100881.38;;;23.78
15709;BMP180;7954;51.914;8.420;2023-06-01T11:19:04;100883.59;;;23.89
15709;BMP180;7954;51.914;8.420;2023-06-01T11:21:35;100874.94;;;24.16
15709;BMP180;7954;51.914;8.420;2023-06-01T11:24:05;100870.69;;;24.23
15709;BMP180;7954;51.914;8.420;2023-06-01T11:26:36;100867.38;;;24.24
15709;BMP180;7954;51.914;8.420;2023-06-01T11:29:15;100862.91;;;24.51
15709;BMP180;7954;51.914;8.420;2023-06-01T11:31:45;100861.34;;;24.81
15709;BMP180;7954;51.914;8.420;2023-06-01T11:34:17;100869.53;;;24.70
15709;BMP180;7954;51.914;8.420;2023-06-01T11:36:47;100866.63;;;24.46
15709;BMP180;7954;51.914;8.420;2023-06-01T11:39:21;100865.53;;;24.44
15709;BMP180;7954;51.914;8.420;2023-06-01T11:42:02;100866.56;;;24.67
15709;BMP180;7954;51.914;8.420;2023-06-01T11:44:32;100860.66;;;24.75
15709;BMP180;7954;51.914;8.420;2023-06-01T11:47:01;100862.50;;;24.69
15709;BMP180;7954;51.914;8.420;2023-06-01T11:49:30;100858.50;;;24.22
15709;BMP180;7954;51.914;8.420;2023-06-01T11:52:00;100866.66;;;24.04
15709;BMP180;7954;51.914;8.420;2023-06-01T11:54:28;100861.88;;;24.00
15709;BMP180;7954;51.914;8.420;2023-06-01T11:56:56;100873.28;;;23.96
15709;BMP180;7954;51.914;8.420;2023-06-01T11:59:25;100861.28;;;24.10
15709;BMP180;7954;51.914;8.420;2023-06-01T12:01:55;100870.84;;;24.39
15709;BMP180;7954;51.914;8.420;2023-06-01T12:04:23;100864.81;;;23.90
15709;BMP180;7954;51.914;8.420;2023-06-01T12:07:04;100863.47;;;23.58
15709;BMP180;7954;51.914;8.420;2023-06-01T12:09:34;100862.88;;;23.40
15709;BMP180;7954;51.914;8.420;2023-06-01T12:12:04;100863.22;;;23.36
15709;BMP180;7954;51.914;8.420;2023-06-01T12:14:34;100866.16;;;23.39
15709;BMP180;7954;51.914;8.420;2023-06-01T12:17:03;100858.44;;;23.39
15709;BMP180;7954;51.914;8.420;2023-06-01T12:19:32;100861.41;;;23.63
15709;BMP180;7954;51.914;8.420;2023-06-01T12:22:04;100862.47;;;23.37
15709;BMP180;7954;51.914;8.420;2023-06-01T12:24:33;100857.69;;;23.47
15709;BMP180;7954;51.914;8.420;2023-06-01T12:27:02;100853.31;;;23.60
15709;BMP180;7954;51.914;8.420;2023-06-01T12:29:37;100852.25;;;23.72
15709;BMP180;7954;51.914;8.420;2023-06-01T12:32:06;100847.84;;;23.98
15709;BMP180;7954;51.914;8.420;2023-06-01T12:34:34;100851.88;;;24.17
15709;BMP180;7954;51.914;8.420;2023-06-01T12:37:18;100842.66;;;24.40
15709;BMP180;7954;51.914;8.420;2023-06-01T12:39:51;100846.28;;;24.70
15709;BMP180;7954;51.914;8.420;2023-06-01T12:42:33;100841.38;;;24.87
15709;BMP180;7954;51.914;8.420;2023-06-01T12:45:03;100832.09;;;25.10
15709;BMP180;7954;51.914;8.420;2023-06-01T12:47:35;100839.41;;;25.21
15709;BMP180;7954;51.914;8.420;2023-06-01T12:50:06;100838.72;;;25.15
15709;BMP180;7954;51.914;8.420;2023-06-01T12:52:37;100831.72;;;25.07
15709;BMP180;7954;51.914;8.420;2023-06-01T12:55:06;100833.25;;;24.91
15709;BMP180;7954;51.914;8.420;2023-06-01T12:57:36;100843.13;;;24.65
15709;BMP180;7954;51.914;8.420;2023-06-01T13:00:05;100844.25;;;24.54
15709;BMP180;7954;51.914;8.420;2023-06-01T13:02:33;100837.97;;;24.65
15709;BMP180;7954;51.914;8.420;2023-06-01T13:05:03;100839.88;;;24.53
15709;BMP180;7954;51.914;8.420;2023-06-01T13:07:32;100833.06;;;24.39
15709;BMP180;7954;51.914;8.420;2023-06-01T13:10:01;100847.56;;;24.66
15709;BMP180;7954;51.914;8.420;2023-06-01T13:12:30;100835.50;;;24.81
15709;BMP180;7954;51.914;8.420;2023-06-01T13:14:59;100832.63;;;24.64
15709;BMP180;7954;51.914;8.420;2023-06-01T13:17:27;100830.44;;;24.60
15709;BMP180;7954;51.914;8.420;2023-06-01T13:19:55;100823.03;;;24.70
15709;BMP180;7954;51.914;8.420;2023-06-01T13:22:23;100825.81;;;25.08
15709;BMP180;7954;51.914;8.420;2023-06-01T13:24:51;100821.44;;;24.93
15709;BMP180;7954;51.914;8.420;2023-06-01T13:27:32;100830.06;;;25.00
15709;BMP180;7954;51.914;8.420;2023-06-01T13:30:01;100825.97;;;25.16
15709;BMP180;7954;51.914;8.420;2023-06-01T13:32:30;100821.31;;;25.50
15709;BMP180;7954;51.914;8.420;2023-06-01T13:34:59;100817.28;;;25.67
15709;BMP180;7954;51.914;8.420;2023-06-01T13:37:27;100817.28;;;25.96
15709;BMP180;7954;51.914;8.420;2023-06-01T13:39:55;100819.00;;;26.11
15709;BMP180;7954;51.914;8.420;2023-06-01T13:42:23;100812.28;;;26.36
15709;BMP180;7954;51.914;8.420;2023-06-01T13:44:53;100793.34;;;26.44
15709;BMP180;7954;51.914;8.420;2023-06-01T13:47:21;100798.34;;;26.58
15709;BMP180;7954;51.914;8.420;2023-06-01T13:49:50;100797.66;;;26.52
15709;BMP180;7954;51.914;8.420;2023-06-01T13:52:17;100790.56;;;26.58
15709;BMP180;7954;51.914;8.420;2023-06-01T13:54:46;100791.41;;;26.50
15709;BMP180;7954;51.914;8.420;2023-06-01T13:57:14;100801.34;;;26.16
15709;BMP180;7954;51.914;8.420;2023-06-01T13:59:42;100802.19;;;26.23
15709;BMP180;7954;51.914;8.420;2023-06-01T14:02:11;100796.31;;;26.70
15709;BMP180;7954;51.914;8.420;2023-06-01T14:04:40;100786.47;;;26.75
15709;BMP180;7954;51.914;8.420;2023-06-01T14:07:08;100795.13;;;26.75
15709;BMP180;7954;51.914;8.420;2023-06-01T14:09:36;100787.88;;;26.49
15709;BMP180;7954;51.914;8.420;2023-06-01T14:12:04;100796.53;;;26.34
15709;BMP180;7954;51.914;8.420;2023-06-01T14:14:32;100784.72;;;26.36
15709;BMP180;7954;51.914;8.420;2023-06-01T14:17:00;100780.94;;;26.57
15709;BMP180;7954;51.914;8.420;2023-06-01T14:19:29;100775.53;;;26.62
15709;BMP180;7954;51.914;8.420;2023-06-01T14:21:57;100779.44;;;26.43
15709;BMP180;7954;51.914;8.420;2023-06-01T14:24:26;100785.97;;;26.40
15709;BMP180;7954;51.914;8.420;2023-06-01T14:26:54;100781.63;;;26.47
15709;BMP180;7954;51.914;8.420;2023-06-01T14:29:21;100777.34;;;26.48
15709;BMP180;7954;51.914;8.420;2023-06-01T14:31:49;100773.81;;;26.78
15709;BMP180;7954;51.914;8.420;2023-06-01T14:34:17;100764.88;;;26.98